Time;durP1;ratioP1;P1;durP2;ratioP2;P2;SDS_P1;SDS_P2;PMS_P1;PMS_P2;Temp;Humidity;BMP_temperature;BMP_pressure;BME280_temperature;BME280_humidity;BME280_pressure;Samples;Min_cycle;Max_cycle;Signal;HPM_P1;HPM_P2
2024/01/22 00:00:47;;;;;;;6.22;2.83;;;8.00;86.50;;;;;;9175192;19;20025;-72
2024/01/22 00:03:54;;;;;;;12.20;2.95;;;8.10;87.00;;;;;;9176026;19;20500;-73
2024/01/22 00:07:02;;;;;;;15.40;3.22;;;8.00;86.80;;;;;;9176322;19;20128;-72
2024/01/22 00:10:11;;;;;;;8.10;2.90;;;8.10;86.50;;;;;;9170704;19;20025;-73
2024/01/22 00:13:17;;;;;;;10.07;2.35;;;8.10;86.60;;;;;;9176518;19;20408;-73
2024/01/22 00:16:26;;;;;;;10.50;2.80;;;8.30;87.50;;;;;;9177515;19;20033;-73
2024/01/22 00:19:32;;;;;;;5.88;2.67;;;8.20;86.70;;;;;;9173539;19;20014;-74
2024/01/22 00:22:42;;;;;;;7.93;2.70;;;8.20;87.00;;;;;;9176052;19;20014;-73
2024/01/22 00:25:48;;;;;;;5.57;2.15;;;8.30;86.90;;;;;;9174617;19;20460;-73
2024/01/22 00:28:55;;;;;;;4.88;2.45;;;8.20;87.00;;;;;;9175873;19;20695;-73
2024/01/22 00:32:03;;;;;;;6.28;2.20;;;8.30;87.80;;;;;;9175648;19;20040;-74
2024/01/22 00:35:14;;;;;;;6.22;2.50;;;8.30;87.60;;;;;;9177274;19;20026;-75
2024/01/22 00:38:22;;;;;;;5.22;2.70;;;8.30;87.40;;;;;;9177232;19;20022;-74
2024/01/22 00:41:29;;;;;;;8.10;2.38;;;8.40;87.50;;;;;;9177282;19;20025;-74
2024/01/22 00:44:35;;;;;;;5.80;2.90;;;8.40;87.60;;;;;;9177013;19;20014;-74
2024/01/22 00:47:45;;;;;;;8.55;2.90;;;8.50;87.40;;;;;;9175992;19;20401;-74
2024/01/22 00:50:53;;;;;;;4.95;2.50;;;8.50;87.20;;;;;;9174899;19;20143;-73
2024/01/22 00:54:03;;;;;;;5.28;2.30;;;8.60;87.30;;;;;;9173820;19;20018;-74
2024/01/22 00:57:09;;;;;;;4.50;2.33;;;8.60;87.80;;;;;;9176363;19;20014;-73
2024/01/22 01:00:17;;;;;;;3.40;2.13;;;8.70;88.00;;;;;;9174391;19;20015;-74
2024/01/22 01:03:26;;;;;;;6.18;2.10;;;8.70;87.50;;;;;;9174779;19;20018;-73
2024/01/22 01:06:33;;;;;;;4.07;1.98;;;8.80;88.20;;;;;;9173725;19;20028;-73
2024/01/22 01:09:45;;;;;;;4.50;2.25;;;8.90;88.50;;;;;;9169948;19;20028;-74
2024/01/22 01:12:52;;;;;;;3.43;2.33;;;9.00;88.30;;;;;;9173941;19;20015;-74
2024/01/22 01:15:58;;;;;;;6.53;1.95;;;8.90;88.60;;;;;;9174165;19;20503;-76
2024/01/22 01:19:08;;;;;;;8.43;2.28;;;9.10;88.20;;;;;;9174938;19;20014;-74
2024/01/22 01:22:15;;;;;;;7.13;2.45;;;9.10;88.70;;;;;;9178387;19;20018;-69
2024/01/22 01:25:25;;;;;;;5.05;2.10;;;9.00;88.20;;;;;;9181452;19;20480;-70
2024/01/22 01:28:31;;;;;;;9.07;2.08;;;9.20;86.40;;;;;;9181006;19;20014;-69
2024/01/22 01:31:46;;;;;;;4.45;2.42;;;9.10;85.90;;;;;;9180460;19;20042;-69
2024/01/22 01:34:51;;;;;;;6.20;2.30;;;9.50;85.80;;;;;;9178692;19;20033;-71
2024/01/22 01:37:59;;;;;;;8.35;2.13;;;9.20;86.10;;;;;;9178754;19;20018;-69
2024/01/22 01:41:12;;;;;;;5.10;1.95;;;9.20;86.70;;;;;;9180941;19;20508;-68
2024/01/22 01:44:21;;;;;;;3.75;1.85;;;9.30;86.80;;;;;;9180567;19;20074;-68
2024/01/22 01:47:30;;;;;;;5.63;2.22;;;9.60;86.70;;;;;;9180006;19;20018;-71
2024/01/22 01:50:38;;;;;;;4.50;2.30;;;9.50;86.70;;;;;;9177876;19;20018;-71
2024/01/22 01:53:44;;;;;;;5.80;2.10;;;9.50;86.60;;;;;;9179564;19;20014;-70
2024/01/22 01:56:55;;;;;;;3.03;2.03;;;9.90;86.20;;;;;;9177614;19;20617;-71
2024/01/22 02:00:04;;;;;;;11.32;2.35;;;9.50;85.60;;;;;;9174743;19;20651;-69
2024/01/22 02:03:17;;;;;;;5.93;1.88;;;9.60;86.10;;;;;;9180046;19;20019;-70
2024/01/22 02:06:23;;;;;;;5.88;2.28;;;9.60;85.70;;;;;;9187772;19;20014;-71
2024/01/22 02:09:49;;;;;;;8.40;3.28;;;9.60;85.90;;;;;;9183969;19;20026;-71
2024/01/22 02:12:58;;;;;;;4.95;2.25;;;9.90;86.00;;;;;;9188245;19;20362;-69
2024/01/22 02:16:06;;;;;;;4.32;2.35;;;9.70;85.80;;;;;;9189161;19;20018;-70
2024/01/22 02:19:26;;;;;;;6.65;2.25;;;9.60;85.80;;;;;;9183987;19;20338;-73
2024/01/22 02:22:34;;;;;;;4.40;2.08;;;9.70;86.30;;;;;;9185361;19;20010;-70
2024/01/22 02:25:43;;;;;;;4.55;1.88;;;9.60;85.10;;;;;;9182632;19;20013;-72
2024/01/22 02:28:51;;;;;;;6.50;2.05;;;9.60;85.60;;;;;;9182809;19;20480;-69
2024/01/22 02:31:58;;;;;;;6.18;2.35;;;9.70;84.80;;;;;;9180607;19;20014;-73
2024/01/22 02:35:06;;;;;;;5.80;2.28;;;9.60;84.70;;;;;;9182073;19;20512;-73
2024/01/22 02:38:12;;;;;;;5.68;2.22;;;9.60;84.30;;;;;;9182732;19;20031;-72
2024/01/22 02:41:22;;;;;;;3.53;2.15;;;9.60;84.80;;;;;;9182050;19;20021;-72
2024/01/22 02:44:27;;;;;;;5.47;1.92;;;9.60;84.60;;;;;;9181999;19;20017;-73
2024/01/22 02:47:35;;;;;;;3.40;1.75;;;9.60;84.90;;;;;;9180673;19;20010;-73
2024/01/22 02:50:44;;;;;;;6.32;1.90;;;9.60;85.10;;;;;;9179519;19;20017;-73
2024/01/22 02:53:51;;;;;;;5.15;2.25;;;9.50;85.10;;;;;;9180963;19;20516;-73
2024/01/22 02:57:00;;;;;;;5.00;1.60;;;9.60;85.00;;;;;;9180863;19;20023;-73
2024/01/22 03:00:09;;;;;;;4.18;1.98;;;9.60;85.10;;;;;;9175885;19;20389;-74
2024/01/22 03:03:15;;;;;;;5.70;1.55;;;9.60;85.00;;;;;;9178953;19;20010;-74
2024/01/22 03:06:23;;;;;;;3.35;1.63;;;9.60;85.00;;;;;;9179803;19;20028;-74
2024/01/22 03:09:31;;;;;;;2.92;1.65;;;9.60;84.90;;;;;;9176510;19;20010;-74
2024/01/22 03:12:42;;;;;;;6.20;2.00;;;9.60;85.30;;;;;;9179206;19;20551;-73
2024/01/22 03:15:47;;;;;;;2.75;1.65;;;9.70;85.10;;;;;;9178387;19;20350;-73
2024/01/22 03:18:55;;;;;;;2.25;1.70;;;9.70;84.80;;;;;;9179877;19;20026;-72
2024/01/22 03:22:01;;;;;;;5.40;1.98;;;9.70;85.20;;;;;;9180280;19;20079;-73
2024/01/22 03:25:09;;;;;;;2.97;2.13;;;9.70;85.10;;;;;;9180445;19;20575;-73
2024/01/22 03:28:17;;;;;;;4.75;1.95;;;9.70;85.30;;;;;;9180296;19;20034;-73
2024/01/22 03:31:26;;;;;;;5.18;1.80;;;9.70;85.20;;;;;;9180026;19;20018;-74
2024/01/22 03:34:33;;;;;;;3.38;1.58;;;9.80;85.30;;;;;;9180077;19;20002;-69
2024/01/22 03:37:45;;;;;;;8.77;1.70;;;9.70;85.30;;;;;;9178418;19;20019;-69
2024/01/22 03:40:51;;;;;;;5.97;2.17;;;10.00;85.30;;;;;;9174611;19;20034;-69
2024/01/22 03:44:02;;;;;;;3.67;1.52;;;9.80;85.60;;;;;;9178413;19;20017;-71
2024/01/22 03:47:08;;;;;;;4.60;1.98;;;9.80;85.90;;;;;;9178029;19;20017;-70
2024/01/22 03:50:16;;;;;;;5.75;1.83;;;9.70;85.60;;;;;;9178330;19;20697;-69
2024/01/22 03:53:22;;;;;;;4.15;1.70;;;9.80;85.90;;;;;;9177066;19;20014;-69
2024/01/22 03:56:30;;;;;;;5.68;1.50;;;9.80;85.60;;;;;;9176160;19;20006;-69
2024/01/22 03:59:39;;;;;;;3.70;1.40;;;9.90;86.00;;;;;;9176601;19;20014;-69
2024/01/22 04:02:48;;;;;;;3.78;1.73;;;9.80;85.90;;;;;;9178097;19;20018;-71
2024/01/22 04:05:54;;;;;;;3.47;1.60;;;9.80;86.00;;;;;;9176930;19;20429;-70
2024/01/22 04:09:01;;;;;;;3.03;1.42;;;9.90;86.00;;;;;;9173492;19;20053;-71
2024/01/22 04:12:08;;;;;;;3.70;1.75;;;9.80;86.10;;;;;;9177450;19;20659;-70
2024/01/22 04:15:18;;;;;;;1.85;1.40;;;9.80;86.10;;;;;;9178144;19;20025;-70
2024/01/22 04:18:24;;;;;;;3.15;1.48;;;10.00;86.60;;;;;;9178034;19;20490;-70
2024/01/22 04:21:32;;;;;;;4.90;1.65;;;9.80;86.10;;;;;;9173062;19;20014;-71
2024/01/22 04:24:38;;;;;;;4.05;1.70;;;9.90;87.00;;;;;;9176057;19;20015;-70
2024/01/22 04:27:46;;;;;;;3.15;1.73;;;9.80;86.60;;;;;;9176195;19;20366;-72
2024/01/22 04:30:54;;;;;;;4.68;1.38;;;9.80;86.10;;;;;;9175972;19;20018;-73
2024/01/22 04:34:02;;;;;;;2.65;1.58;;;9.90;86.60;;;;;;9177760;19;20018;-69
2024/01/22 04:37:08;;;;;;;6.45;2.22;;;10.00;86.30;;;;;;9176850;19;20094;-71
2024/01/22 04:40:17;;;;;;;2.03;1.50;;;9.90;86.30;;;;;;9176450;19;20095;-72
2024/01/22 04:43:23;;;;;;;2.67;1.80;;;9.90;86.60;;;;;;9176259;19;20357;-72
2024/01/22 04:46:33;;;;;;;4.18;1.25;;;9.90;86.40;;;;;;9176901;19;20030;-71
2024/01/22 04:49:39;;;;;;;1.98;1.38;;;9.90;86.60;;;;;;9177187;19;20014;-70
2024/01/22 04:52:47;;;;;;;4.43;1.70;;;10.10;87.50;;;;;;9172510;19;20026;-71
2024/01/22 04:55:52;;;;;;;2.78;1.30;;;10.00;86.90;;;;;;9175342;19;20013;-70
2024/01/22 04:59:00;;;;;;;2.58;1.40;;;10.20;87.50;;;;;;9175483;19;20014;-72
2024/01/22 05:02:08;;;;;;;3.30;1.30;;;10.00;87.80;;;;;;9174508;19;20018;-71
2024/01/22 05:05:16;;;;;;;5.55;1.70;;;10.00;87.60;;;;;;9174923;19;20003;-70
2024/01/22 05:08:22;;;;;;;2.42;1.40;;;10.00;87.70;;;;;;9172205;19;20127;-72
2024/01/22 05:11:29;;;;;;;2.33;1.30;;;10.10;87.70;;;;;;9168865;19;20030;-69
2024/01/22 05:14:38;;;;;;;1.88;1.35;;;10.00;88.10;;;;;;9175095;19;20015;-73
2024/01/22 05:17:48;;;;;;;4.03;1.30;;;10.10;88.30;;;;;;9175988;19;20021;-70
2024/01/22 05:20:54;;;;;;;6.35;1.38;;;10.10;88.20;;;;;;9171548;19;20098;-70
2024/01/22 05:24:01;;;;;;;1.30;0.88;;;10.10;88.30;;;;;;9174141;19;20018;-71
2024/01/22 05:27:07;;;;;;;2.05;1.55;;;10.20;88.50;;;;;;9175186;19;20021;-70
2024/01/22 05:30:16;;;;;;;6.20;1.58;;;10.20;88.50;;;;;;9172313;19;20015;-71
2024/01/22 05:33:25;;;;;;;1.60;1.30;;;10.30;88.30;;;;;;9175269;19;20010;-69
2024/01/22 05:36:34;;;;;;;4.20;1.30;;;10.30;88.70;;;;;;9174166;19;20019;-70
2024/01/22 05:39:40;;;;;;;2.45;1.10;;;10.30;88.60;;;;;;9171954;19;20022;-69
2024/01/22 05:42:47;;;;;;;7.88;1.10;;;10.40;89.00;;;;;;9171545;19;20876;-71
2024/01/22 05:45:54;;;;;;;1.27;1.17;;;10.50;89.20;;;;;;9175125;19;20007;-69
2024/01/22 05:49:05;;;;;;;3.67;1.42;;;10.40;89.20;;;;;;9171297;19;20651;-70
2024/01/22 05:52:11;;;;;;;5.10;1.42;;;10.60;89.30;;;;;;9174245;19;20026;-71
2024/01/22 05:55:19;;;;;;;2.75;1.40;;;10.50;89.30;;;;;;9174167;19;20054;-70
2024/01/22 05:58:25;;;;;;;1.90;1.27;;;10.60;89.30;;;;;;9174449;19;20019;-70
2024/01/22 06:01:33;;;;;;;5.35;1.35;;;10.50;89.00;;;;;;9170469;19;20019;-70
2024/01/22 06:04:41;;;;;;;1.55;1.30;;;10.60;89.50;;;;;;9172136;19;20392;-71
2024/01/22 06:07:49;;;;;;;1.50;1.10;;;10.60;89.40;;;;;;9171775;19;20017;-70
2024/01/22 06:10:54;;;;;;;2.83;2.05;;;10.60;89.80;;;;;;9168250;19;20019;-72
2024/01/22 06:14:03;;;;;;;3.72;1.20;;;10.70;89.80;;;;;;9174662;19;20033;-70
2024/01/22 06:17:09;;;;;;;4.78;1.30;;;10.70;89.20;;;;;;9170288;19;20018;-72
2024/01/22 06:20:20;;;;;;;2.45;1.20;;;10.60;89.60;;;;;;9172442;19;20010;-70
2024/01/22 06:23:26;;;;;;;3.80;1.20;;;10.70;89.50;;;;;;9173685;19;20391;-70
2024/01/22 06:26:33;;;;;;;1.20;1.10;;;10.80;89.30;;;;;;9171721;19;20023;-71
2024/01/22 06:29:39;;;;;;;5.22;1.58;;;10.70;89.50;;;;;;9170847;19;20051;-69
2024/01/22 06:32:47;;;;;;;2.53;1.02;;;10.80;89.80;;;;;;9171026;19;20364;-70
2024/01/22 06:35:55;;;;;;;2.13;1.05;;;10.80;89.60;;;;;;9172632;19;20074;-71
2024/01/22 06:39:03;;;;;;;1.33;1.15;;;10.80;90.10;;;;;;9172021;19;20019;-71
2024/01/22 06:42:09;;;;;;;20.50;4.85;;;10.90;90.00;;;;;;9171136;19;20719;-69
2024/01/22 06:45:31;;;;;;;3.13;1.30;;;10.90;90.00;;;;;;9169892;19;20018;-70
2024/01/22 06:48:38;;;;;;;3.70;1.20;;;11.00;90.00;;;;;;9171301;19;20518;-70
2024/01/22 06:51:49;;;;;;;1.75;1.05;;;11.00;90.00;;;;;;9175358;19;20018;-70
2024/01/22 06:54:56;;;;;;;1.55;1.13;;;11.00;90.10;;;;;;9179782;19;20014;-72
2024/01/22 06:58:05;;;;;;;5.25;1.52;;;11.20;89.90;;;;;;9179151;19;20014;-70
2024/01/22 07:01:10;;;;;;;4.20;1.15;;;11.00;90.10;;;;;;9177013;19;20031;-73
2024/01/22 07:04:19;;;;;;;5.72;1.10;;;11.10;90.00;;;;;;9181349;19;20018;-73
2024/01/22 07:07:27;;;;;;;6.10;1.38;;;11.20;90.10;;;;;;9178975;19;20015;-72
2024/01/22 07:10:35;;;;;;;4.00;1.15;;;11.30;90.20;;;;;;9177192;19;20033;-75
2024/01/22 07:13:41;;;;;;;1.55;1.20;;;11.20;90.20;;;;;;9177572;19;20502;-74
2024/01/22 07:16:49;;;;;;;2.65;1.35;;;11.40;90.10;;;;;;9180858;19;20014;-75
2024/01/22 07:19:54;;;;;;;3.10;1.20;;;11.20;89.70;;;;;;9181525;19;20030;-74
2024/01/22 07:23:05;;;;;;;1.80;0.82;;;11.40;90.00;;;;;;9175735;19;20450;-74
2024/01/22 07:26:10;;;;;;;1.42;1.08;;;11.40;90.10;;;;;;9181327;19;20572;-74
2024/01/22 07:29:18;;;;;;;2.53;1.02;;;11.40;89.60;;;;;;9180481;19;20026;-74
2024/01/22 07:32:26;;;;;;;0.70;0.65;;;11.40;89.70;;;;;;9178806;19;20018;-74
2024/01/22 07:35:34;;;;;;;4.45;0.95;;;11.50;90.20;;;;;;9177746;19;20801;-75
2024/01/22 07:38:42;;;;;;;2.63;1.17;;;11.50;89.90;;;;;;9179764;19;20022;-75
2024/01/22 07:41:50;;;;;;;4.15;1.30;;;11.50;90.10;;;;;;9175207;19;20598;-75
2024/01/22 07:44:56;;;;;;;3.50;0.80;;;11.60;90.20;;;;;;9177981;19;20022;-75
2024/01/22 07:48:07;;;;;;;3.80;1.02;;;11.50;90.30;;;;;;9177994;19;20033;-74
2024/01/22 07:51:13;;;;;;;3.22;1.02;;;11.50;90.10;;;;;;9179762;19;20465;-74
2024/01/22 07:54:23;;;;;;;2.58;1.20;;;11.70;90.20;;;;;;9180142;19;20021;-74
2024/01/22 07:57:29;;;;;;;3.50;0.95;;;11.50;90.10;;;;;;9179698;19;20014;-74
2024/01/22 08:00:39;;;;;;;2.63;0.90;;;11.70;90.20;;;;;;9179873;19;20052;-74
2024/01/22 08:03:45;;;;;;;4.65;1.20;;;11.50;90.10;;;;;;9176533;19;20014;-74
2024/01/22 08:06:55;;;;;;;4.05;1.17;;;11.70;90.40;;;;;;9177990;19;20014;-75
2024/01/22 08:10:03;;;;;;;5.53;1.60;;;11.70;90.20;;;;;;9174362;19;20099;-75
2024/01/22 08:13:11;;;;;;;2.10;1.00;;;11.60;90.20;;;;;;9179046;19;20053;-74
2024/01/22 08:16:17;;;;;;;5.90;1.00;;;11.60;90.20;;;;;;9178943;19;20011;-74
2024/01/22 08:19:24;;;;;;;5.60;1.40;;;11.70;90.50;;;;;;9179472;19;20011;-75
2024/01/22 08:22:30;;;;;;;7.85;1.90;;;11.70;90.50;;;;;;9175754;19;20022;-74
2024/01/22 08:25:41;;;;;;;5.93;1.65;;;11.70;90.40;;;;;;9175505;19;20387;-74
2024/01/22 08:28:46;;;;;;;9.20;1.40;;;11.80;90.70;;;;;;9176814;19;20029;-74
2024/01/22 08:31:56;;;;;;;8.25;1.80;;;11.80;90.20;;;;;;9175905;19;20022;-73
2024/01/22 08:35:02;;;;;;;9.82;1.90;;;12.00;90.30;;;;;;9176356;19;20019;-74
2024/01/22 08:38:10;;;;;;;8.48;2.42;;;11.90;90.40;;;;;;9175022;19;20021;-74
2024/01/22 08:41:18;;;;;;;6.28;1.48;;;11.90;90.20;;;;;;9178384;19;20014;-73
2024/01/22 08:44:26;;;;;;;17.13;2.03;;;12.10;90.40;;;;;;9176662;19;20029;-75
2024/01/22 08:47:31;;;;;;;13.75;1.88;;;12.00;90.30;;;;;;9177713;19;20065;-74
2024/01/22 08:50:41;;;;;;;8.93;2.17;;;12.00;90.00;;;;;;9177534;19;20029;-73
2024/01/22 08:53:47;;;;;;;9.05;1.80;;;12.00;90.10;;;;;;9175403;19;20303;-73
2024/01/22 08:56:57;;;;;;;12.85;2.30;;;12.10;90.40;;;;;;9176514;19;20025;-74
2024/01/22 09:00:05;;;;;;;9.02;1.77;;;12.00;90.10;;;;;;9177217;19;20017;-74
2024/01/22 09:03:13;;;;;;;12.20;2.58;;;12.10;90.20;;;;;;9175104;19;20033;-74
2024/01/22 09:06:20;;;;;;;10.88;3.00;;;12.10;90.30;;;;;;9175959;19;20015;-74
2024/01/22 09:09:30;;;;;;;16.55;3.40;;;12.00;90.10;;;;;;9169718;19;20042;-74
2024/01/22 09:12:38;;;;;;;12.95;2.10;;;12.10;90.20;;;;;;9172990;19;20045;-73
2024/01/22 09:15:50;;;;;;;12.10;2.13;;;12.10;90.20;;;;;;9175763;19;20052;-73
2024/01/22 09:18:57;;;;;;;12.35;2.40;;;12.10;90.20;;;;;;9175208;19;20021;-73
2024/01/22 09:22:05;;;;;;;7.40;1.75;;;12.10;90.20;;;;;;9173945;19;20033;-73
2024/01/22 09:25:11;;;;;;;20.35;2.50;;;12.10;90.10;;;;;;9174476;19;21605;-73
2024/01/22 09:28:22;;;;;;;18.77;3.17;;;12.10;90.20;;;;;;9171981;19;20006;-73
2024/01/22 09:31:29;;;;;;;12.38;2.55;;;12.10;90.40;;;;;;9177328;19;20019;-69
2024/01/22 09:34:36;;;;;;;13.38;1.98;;;12.10;90.40;;;;;;9173853;19;20511;-69
2024/01/22 09:37:42;;;;;;;14.60;2.58;;;12.20;90.50;;;;;;9174403;19;20026;-69
2024/01/22 09:40:52;;;;;;;12.65;1.90;;;12.10;90.40;;;;;;9173266;19;20384;-69
2024/01/22 09:44:00;;;;;;;19.42;3.08;;;12.00;90.30;;;;;;9174055;19;20022;-69
2024/01/22 09:47:12;;;;;;;13.18;3.72;;;12.10;90.30;;;;;;9172555;19;20015;-69
2024/01/22 09:50:17;;;;;;;14.95;2.72;;;12.30;90.50;;;;;;9174550;19;20355;-71
2024/01/22 09:53:27;;;;;;;10.93;2.40;;;12.10;90.30;;;;;;9173033;19;20022;-70
2024/01/22 09:56:34;;;;;;;10.43;2.38;;;12.20;90.60;;;;;;9176006;19;20026;-70
2024/01/22 09:59:45;;;;;;;17.85;2.38;;;12.00;90.60;;;;;;9174852;19;20481;-70
2024/01/22 10:02:51;;;;;;;9.85;1.80;;;12.10;90.90;;;;;;9172235;19;20020;-69
2024/01/22 10:06:01;;;;;;;10.30;2.10;;;12.10;90.70;;;;;;9173924;19;20365;-69
2024/01/22 10:09:08;;;;;;;9.80;2.25;;;12.10;91.30;;;;;;9169114;19;20020;-71
2024/01/22 10:12:15;;;;;;;16.48;2.28;;;12.10;91.00;;;;;;9172109;19;20010;-71
2024/01/22 10:15:26;;;;;;;10.80;2.40;;;12.00;91.00;;;;;;9172522;19;20018;-72
2024/01/22 10:18:36;;;;;;;13.52;2.13;;;11.90;91.20;;;;;;9171027;19;20019;-70
2024/01/22 10:21:41;;;;;;;17.77;3.20;;;11.90;91.40;;;;;;9173461;19;20058;-71
2024/01/22 10:25:00;;;;;;;14.77;3.00;;;11.90;91.90;;;;;;9171984;19;20025;-69
2024/01/22 10:28:17;;;;;;;16.55;3.65;;;12.10;99.90;;;;;;9180181;19;20125;-71
2024/01/22 10:31:28;;;;;;;10.57;1.92;;;11.80;89.30;;;;;;9181888;19;20022;-70
2024/01/22 10:34:46;;;;;;;12.43;2.30;;;11.80;88.40;;;;;;9181063;19;20017;-70
2024/01/22 10:38:08;;;;;;;16.50;1.90;;;11.80;88.40;;;;;;9182810;19;20018;-71
2024/01/22 10:41:20;;;;;;;15.13;2.45;;;11.70;88.30;;;;;;9183092;19;20010;-75
2024/01/22 10:44:27;;;;;;;;;;;11.60;88.30;;;;;;9181728;19;20030;-74
2024/01/22 10:47:37;;;;;;;16.70;2.75;;;11.70;88.20;;;;;;9180573;19;19919;-73
2024/01/22 10:50:46;;;;;;;14.05;2.70;;;11.60;88.10;;;;;;9182321;19;20022;-74
2024/01/22 10:53:52;;;;;;;15.20;2.38;;;11.60;88.10;;;;;;9179965;19;20021;-74
2024/01/22 10:57:05;;;;;;;13.77;2.05;;;11.60;88.10;;;;;;9178851;19;20014;-76
2024/01/22 11:00:16;;;;;;;18.35;2.83;;;11.50;88.20;;;;;;9179457;19;20353;-74
2024/01/22 11:03:29;;;;;;;21.08;2.97;;;11.60;88.40;;;;;;9179831;19;20034;-74
2024/01/22 11:06:42;;;;;;;17.20;3.63;;;11.50;88.30;;;;;;9179993;19;20480;-71
2024/01/22 11:09:53;;;;;;;22.10;3.25;;;11.50;88.30;;;;;;9177020;19;20022;-71
2024/01/22 11:13:04;;;;;;;33.03;4.23;;;11.60;88.40;;;;;;9181486;19;20025;-68
2024/01/22 11:16:12;;;;;;;29.40;4.38;;;11.60;88.30;;;;;;9177992;19;21738;-70
2024/01/22 11:19:26;;;;;;;20.45;3.40;;;11.50;88.50;;;;;;9179394;19;20014;-70
2024/01/22 11:22:34;;;;;;;25.55;4.32;;;11.50;88.70;;;;;;9179297;19;20014;-71
2024/01/22 11:25:40;;;;;;;18.73;3.97;;;11.60;88.20;;;;;;9175994;19;20869;-69
2024/01/22 11:29:10;;;;;;;32.50;4.07;;;11.60;88.40;;;;;;9177829;19;20018;-71
2024/01/22 11:32:28;;;;;;;31.27;4.88;;;11.40;87.90;;;;;;9180650;19;20025;-70
2024/01/22 11:35:40;;;;;;;33.00;5.57;;;11.40;88.10;;;;;;9176150;19;20019;-71
2024/01/22 11:38:55;;;;;;;20.35;4.65;;;11.40;88.00;;;;;;9178444;19;20062;-70
2024/01/22 11:42:18;;;;;;;36.95;4.78;;;11.40;87.90;;;;;;9179564;19;20428;-70
2024/01/22 11:45:24;;;;;;;34.65;4.85;;;11.40;88.00;;;;;;9178194;19;20006;-70
2024/01/22 11:48:42;;;;;;;31.27;4.93;;;11.30;87.80;;;;;;9177575;19;20022;-70
2024/01/22 11:51:52;;;;;;;34.65;5.65;;;11.40;87.90;;;;;;9177787;19;20017;-74
2024/01/22 11:55:03;;;;;;;31.25;3.63;;;11.40;87.80;;;;;;9177281;19;20029;-74
2024/01/22 11:58:12;;;;;;;37.80;6.20;;;11.40;88.10;;;;;;9177029;19;20023;-74
2024/01/22 12:01:21;;;;;;;37.97;5.18;;;11.20;87.80;;;;;;9179146;19;20036;-74
2024/01/22 12:04:27;;;;;;;34.85;5.45;;;11.30;87.80;;;;;;9178430;19;20010;-74
2024/01/22 12:07:44;;;;;;;35.83;5.03;;;11.40;87.90;;;;;;9174150;19;20029;-73
2024/01/22 12:10:52;;;;;;;32.70;4.20;;;11.20;87.90;;;;;;9172438;19;20025;-74
2024/01/22 12:14:00;;;;;;;30.70;5.18;;;11.30;87.80;;;;;;9178401;19;20025;-73
2024/01/22 12:17:07;;;;;;;29.60;4.97;;;11.30;87.80;;;;;;9177315;19;20018;-74
2024/01/22 12:20:15;;;;;;;38.67;4.50;;;11.20;87.50;;;;;;9178502;19;20018;-74
2024/01/22 12:23:34;;;;;;;29.92;5.78;;;11.20;87.50;;;;;;9176685;19;20015;-74
2024/01/22 12:26:42;;;;;;;28.35;4.40;;;11.20;87.60;;;;;;9175878;19;20026;-74
2024/01/22 12:29:48;;;;;;;27.63;3.85;;;11.20;87.60;;;;;;9178740;19;20014;-74
2024/01/22 12:32:56;;;;;;;25.77;4.47;;;11.20;87.50;;;;;;9178721;19;20022;-74
2024/01/22 12:36:10;;;;;;;28.55;4.97;;;11.20;87.50;;;;;;9176577;19;20015;-74
2024/01/22 12:39:26;;;;;;;38.78;4.85;;;11.20;87.40;;;;;;9176051;19;20037;-74
2024/01/22 12:42:37;;;;;;;29.25;4.07;;;11.20;87.60;;;;;;9178862;19;20010;-73
2024/01/22 12:45:45;;;;;;;38.65;4.43;;;11.30;87.40;;;;;;9174917;19;20737;-74
2024/01/22 12:48:55;;;;;;;37.80;4.93;;;11.20;87.20;;;;;;9171684;19;20409;-73
2024/01/22 12:52:17;;;;;;;32.92;4.35;;;11.30;87.40;;;;;;9177002;19;20015;-75
2024/01/22 12:55:25;;;;;;;32.25;3.88;;;11.40;87.20;;;;;;9175598;19;20524;-74
2024/01/22 12:58:43;;;;;;;23.35;4.07;;;11.30;87.30;;;;;;9177371;19;20029;-74
2024/01/22 13:01:55;;;;;;;21.88;4.40;;;11.40;86.90;;;;;;9177968;19;20006;-76
2024/01/22 13:05:04;;;;;;;21.45;3.88;;;11.40;87.20;;;;;;9174949;19;20019;-76
2024/01/22 13:08:13;;;;;;;25.52;3.70;;;11.40;86.80;;;;;;9173414;19;20137;-76
2024/01/22 13:11:26;;;;;;;26.13;4.47;;;11.40;86.60;;;;;;9173354;19;20471;-75
2024/01/22 13:14:46;;;;;;;29.15;3.20;;;11.40;86.50;;;;;;9175894;19;20014;-76
2024/01/22 13:17:54;;;;;;;30.55;4.47;;;11.40;86.40;;;;;;9175638;19;20018;-75
2024/01/22 13:21:04;;;;;;;21.20;5.03;;;11.30;86.30;;;;;;9174437;19;20014;-73
2024/01/22 13:24:21;;;;;;;27.42;3.72;;;11.80;86.20;;;;;;9174266;19;20101;-75
2024/01/22 13:27:32;;;;;;;28.73;3.92;;;11.30;86.00;;;;;;9173466;19;20385;-75
2024/01/22 13:30:43;;;;;;;28.70;3.92;;;11.20;85.90;;;;;;9172278;19;20022;-74
2024/01/22 13:33:50;;;;;;;34.08;5.03;;;11.20;85.80;;;;;;9173551;19;20006;-75
2024/01/22 13:37:00;;;;;;;17.85;3.75;;;11.10;85.60;;;;;;9170379;19;20877;-74
2024/01/22 13:40:10;;;;;;;31.55;4.18;;;11.10;85.50;;;;;;9175179;19;20010;-74
2024/01/22 13:43:20;;;;;;;26.55;4.18;;;11.00;85.40;;;;;;9175142;19;20007;-76
2024/01/22 13:46:33;;;;;;;29.33;4.00;;;11.00;85.30;;;;;;9171439;19;20019;-73
2024/01/22 13:49:43;;;;;;;25.90;3.60;;;11.00;85.30;;;;;;9173695;19;20078;-75
2024/01/22 13:52:51;;;;;;;21.05;3.17;;;10.90;85.40;;;;;;9171369;19;20018;-75
2024/01/22 13:56:07;;;;;;;24.00;3.63;;;10.90;85.20;;;;;;9173854;19;20023;-74
2024/01/22 13:59:21;;;;;;;29.67;3.83;;;10.80;84.80;;;;;;9174600;19;20069;-74
2024/01/22 14:02:28;;;;;;;21.20;3.67;;;10.80;84.80;;;;;;9183291;19;20014;-74
2024/01/22 14:05:34;;;;;;;18.25;2.83;;;10.80;84.90;;;;;;9181859;19;20025;-76
2024/01/22 14:08:42;;;;;;;17.15;3.40;;;10.80;85.30;;;;;;9179862;19;20013;-74
2024/01/22 14:11:47;;;;;;;27.02;4.90;;;10.70;84.60;;;;;;9180930;19;20017;-77
2024/01/22 14:14:58;;;;;;;16.13;3.13;;;10.70;84.40;;;;;;9182996;19;20457;-76
2024/01/22 14:18:03;;;;;;;27.20;4.22;;;10.70;84.40;;;;;;9190444;19;20022;-75
2024/01/22 14:21:11;;;;;;;22.05;3.88;;;10.70;84.40;;;;;;9187813;19;20017;-73
2024/01/22 14:24:17;;;;;;;21.50;2.50;;;10.70;84.30;;;;;;9189444;19;20637;-75
2024/01/22 14:27:25;;;;;;;16.30;3.38;;;10.70;84.20;;;;;;9188102;19;20863;-75
2024/01/22 14:30:34;;;;;;;23.08;3.90;;;10.60;84.10;;;;;;9191387;19;20014;-74
2024/01/22 14:33:42;;;;;;;25.80;3.50;;;10.60;83.90;;;;;;9188436;19;20496;-75
2024/01/22 14:36:47;;;;;;;19.17;3.70;;;10.60;84.00;;;;;;9190431;19;20019;-75
2024/01/22 14:39:55;;;;;;;22.90;4.05;;;10.60;84.00;;;;;;9190019;19;20022;-75
2024/01/22 14:43:01;;;;;;;23.98;3.28;;;10.60;84.00;;;;;;9187852;19;20018;-75
2024/01/22 14:46:11;;;;;;;28.13;3.03;;;10.60;83.80;;;;;;9187816;19;20014;-74
2024/01/22 14:49:17;;;;;;;20.05;4.22;;;10.60;83.80;;;;;;9186856;19;20011;-75
2024/01/22 14:52:26;;;;;;;24.08;5.00;;;11.50;84.30;;;;;;9187607;19;20625;-74
2024/01/22 14:55:32;;;;;;;24.33;3.70;;;10.60;83.60;;;;;;9184383;19;20029;-74
2024/01/22 14:58:40;;;;;;;35.30;4.70;;;10.60;83.70;;;;;;9184436;19;20018;-74
2024/01/22 15:01:48;;;;;;;34.28;4.63;;;10.60;83.60;;;;;;9181396;19;20147;-75
2024/01/22 15:04:56;;;;;;;20.90;3.05;;;10.60;83.60;;;;;;9182917;19;20022;-75
2024/01/22 15:08:02;;;;;;;25.58;3.67;;;10.50;83.60;;;;;;9178941;19;20014;-76
2024/01/22 15:11:09;;;;;;;26.45;3.85;;;10.50;83.30;;;;;;9173059;19;20463;-73
2024/01/22 15:14:15;;;;;;;24.58;4.03;;;10.50;83.40;;;;;;9182544;19;20027;-75
2024/01/22 15:17:25;;;;;;;21.88;3.53;;;10.50;83.30;;;;;;9181985;19;20018;-75
2024/01/22 15:20:31;;;;;;;27.45;4.00;;;10.50;83.30;;;;;;9181177;19;20021;-73
2024/01/22 15:23:39;;;;;;;38.17;4.57;;;10.60;83.50;;;;;;9180933;19;20114;-73
2024/01/22 15:26:45;;;;;;;25.45;3.58;;;10.50;83.30;;;;;;9178809;19;20010;-73
2024/01/22 15:29:53;;;;;;;26.63;4.43;;;10.40;83.10;;;;;;9180856;19;20021;-73
2024/01/22 15:33:03;;;;;;;18.63;3.67;;;10.40;83.40;;;;;;9180789;19;20566;-73
2024/01/22 15:36:12;;;;;;;23.88;3.67;;;10.40;83.10;;;;;;9179822;19;20487;-73
2024/01/22 15:39:25;;;;;;;26.77;3.63;;;10.40;83.10;;;;;;9180522;19;20014;-73
2024/01/22 15:42:39;;;;;;;32.58;5.03;;;10.60;83.30;;;;;;9177242;19;20394;-73
2024/01/22 15:45:48;;;;;;;29.85;3.97;;;10.40;83.10;;;;;;9175947;19;20522;-73
2024/01/22 15:49:02;;;;;;;24.40;4.53;;;10.40;83.30;;;;;;9176759;19;20014;-73
2024/01/22 15:52:09;;;;;;;24.55;3.72;;;10.30;83.00;;;;;;9178333;19;20018;-73
2024/01/22 15:55:17;;;;;;;23.30;3.70;;;10.50;83.40;;;;;;9179167;19;20018;-73
2024/01/22 15:58:31;;;;;;;24.65;3.92;;;10.30;83.00;;;;;;9174482;19;20356;-73
2024/01/22 16:01:39;;;;;;;26.48;3.90;;;10.30;83.00;;;;;;9178072;19;20033;-72
2024/01/22 16:04:49;;;;;;;26.05;3.75;;;10.60;83.30;;;;;;9177774;19;20010;-73
2024/01/22 16:07:57;;;;;;;37.78;4.93;;;10.30;83.00;;;;;;9172825;19;20424;-69
2024/01/22 16:11:06;;;;;;;29.25;3.97;;;10.30;82.90;;;;;;9172959;19;20026;-66
2024/01/22 16:14:15;;;;;;;24.80;3.72;;;10.30;82.90;;;;;;9175379;19;20025;-67
2024/01/22 16:17:21;;;;;;;34.80;6.95;;;10.20;82.90;;;;;;9178570;19;20018;-67
2024/01/22 16:20:31;;;;;;;25.17;3.80;;;10.30;83.00;;;;;;9176941;19;20014;-67